createdAt,value
2019-03-28T00:02:23.916Z,9.93
2019-03-28T00:04:55.427Z,10.00
2019-03-28T00:07:26.941Z,10.00
2019-03-28T00:09:58.461Z,10.00
2019-03-28T00:12:30.057Z,9.98
2019-03-28T00:15:01.547Z,9.93
2019-03-28T00:17:33.104Z,9.99
2019-03-28T00:20:05.935Z,10.00
2019-03-28T00:22:42.341Z,9.99
2019-03-28T00:25:18.523Z,10.07
2019-03-28T00:27:50.053Z,10.01
2019-03-28T00:30:22.213Z,9.98
2019-03-28T00:32:53.816Z,10.03
2019-03-28T00:35:26.206Z,10.02
2019-03-28T00:37:57.881Z,9.94
2019-03-28T00:40:30.218Z,9.90
2019-03-28T00:43:01.874Z,9.75
2019-03-28T00:45:33.470Z,9.72
2019-03-28T00:48:04.973Z,9.73
2019-03-28T00:50:36.487Z,9.68
2019-03-28T00:53:08.086Z,9.73
2019-03-28T00:55:39.597Z,9.75
2019-03-28T00:58:11.124Z,9.81
2019-03-28T01:00:42.629Z,9.89
2019-03-28T01:03:14.125Z,9.90
2019-03-28T01:05:45.666Z,9.78
2019-03-28T01:08:17.219Z,9.86
2019-03-28T01:10:48.731Z,9.90
2019-03-28T01:13:20.245Z,9.95
2019-03-28T01:15:51.758Z,10.01
2019-03-28T01:18:23.342Z,9.97
2019-03-28T01:20:54.859Z,9.88
2019-03-28T01:23:26.496Z,9.99
2019-03-28T01:25:58.004Z,9.98
2019-03-28T01:28:29.515Z,9.99
2019-03-28T01:31:01.088Z,9.96
2019-03-28T01:33:32.589Z,9.86
2019-03-28T01:36:05.174Z,9.89
2019-03-28T01:38:36.746Z,9.89
2019-03-28T01:41:08.268Z,9.97
2019-03-28T01:43:39.760Z,10.01
2019-03-28T01:46:12.330Z,10.04
2019-03-28T01:48:43.893Z,9.91
2019-03-28T01:51:15.415Z,9.97
2019-03-28T01:53:48.581Z,9.98
2019-03-28T01:56:20.152Z,10.04
2019-03-28T01:58:51.719Z,10.06
2019-03-28T02:01:23.249Z,10.10
2019-03-28T02:03:54.735Z,9.99
2019-03-28T02:06:26.227Z,10.01
2019-03-28T02:08:57.747Z,10.02
2019-03-28T02:11:29.269Z,10.06
2019-03-28T02:14:00.781Z,10.09
2019-03-28T02:16:32.342Z,10.07
2019-03-28T02:19:03.855Z,10.09
2019-03-28T02:21:36.115Z,10.08
2019-03-28T02:24:07.681Z,10.06
2019-03-28T02:26:39.267Z,9.88
2019-03-28T02:29:10.843Z,9.93
2019-03-28T02:31:43.075Z,9.98
2019-03-28T02:34:14.832Z,9.95
2019-03-28T02:36:46.416Z,9.84
2019-03-28T02:39:17.905Z,9.73
2019-03-28T02:41:49.479Z,9.88
2019-03-28T02:44:21.935Z,9.97
2019-03-28T02:46:53.451Z,9.87
2019-03-28T02:49:25.036Z,9.98
2019-03-28T02:51:56.557Z,9.91
2019-03-28T02:54:28.165Z,9.80
2019-03-28T02:56:59.735Z,9.88
2019-03-28T02:59:31.238Z,9.69
2019-03-28T03:02:02.823Z,9.58
2019-03-28T03:04:34.421Z,9.56
2019-03-28T03:07:05.929Z,9.70
2019-03-28T03:09:37.464Z,9.69
2019-03-28T03:12:08.931Z,9.80
2019-03-28T03:14:40.661Z,9.93
2019-03-28T03:17:12.226Z,10.00
2019-03-28T03:19:45.369Z,9.96
2019-03-28T03:22:16.874Z,9.99
2019-03-28T03:24:48.464Z,9.98
2019-03-28T03:27:20.107Z,9.96
2019-03-28T03:29:51.621Z,9.97
2019-03-28T03:32:23.132Z,10.00
2019-03-28T03:34:54.632Z,10.01
2019-03-28T03:37:26.159Z,10.00
2019-03-28T03:39:57.741Z,10.05
2019-03-28T03:42:29.258Z,10.06
2019-03-28T03:45:00.846Z,10.06
2019-03-28T03:47:32.419Z,10.01
2019-03-28T03:50:05.505Z,10.02
2019-03-28T03:52:37.018Z,10.04
2019-03-28T03:55:09.606Z,10.05
2019-03-28T03:57:41.105Z,9.96
2019-03-28T04:00:15.837Z,9.97
2019-03-28T04:02:47.354Z,10.00
2019-03-28T04:05:18.869Z,9.93
2019-03-28T04:07:50.380Z,9.97
2019-03-28T04:10:21.919Z,9.98
2019-03-28T04:12:53.432Z,10.02
2019-03-28T04:15:25.018Z,10.04
2019-03-28T04:17:56.663Z,9.96
2019-03-28T04:20:28.168Z,9.95
2019-03-28T04:22:59.828Z,9.94
2019-03-28T04:25:31.331Z,9.85
2019-03-28T04:28:02.841Z,9.82
2019-03-28T04:30:34.348Z,9.92
2019-03-28T04:33:05.857Z,9.92
2019-03-28T04:35:37.358Z,9.82
2019-03-28T04:38:08.863Z,9.82
2019-03-28T04:40:40.363Z,9.76
2019-03-28T04:43:12.019Z,9.56
2019-03-28T04:45:43.592Z,9.59
2019-03-28T04:48:15.104Z,9.55
2019-03-28T04:50:46.608Z,9.58
2019-03-28T04:53:20.906Z,9.64
2019-03-28T04:55:52.440Z,9.49
2019-03-28T04:58:23.956Z,9.56
2019-03-28T05:00:55.501Z,9.61
2019-03-28T05:03:27.010Z,9.57
2019-03-28T05:05:58.649Z,9.49
2019-03-28T05:08:30.173Z,9.53
2019-03-28T05:11:01.677Z,9.55
2019-03-28T05:13:33.188Z,9.58
2019-03-28T05:16:04.706Z,9.64
2019-03-28T05:18:36.209Z,9.60
2019-03-28T05:21:07.696Z,9.58
2019-03-28T05:23:39.215Z,9.55
2019-03-28T05:26:10.706Z,9.57
2019-03-28T05:28:42.234Z,9.65
2019-03-28T05:31:13.748Z,9.78
2019-03-28T05:33:45.233Z,9.89
2019-03-28T05:36:16.820Z,9.94
2019-03-28T05:38:48.323Z,9.95
2019-03-28T05:41:19.824Z,10.02
2019-03-28T05:43:51.394Z,9.99
2019-03-28T05:46:23.971Z,9.90
2019-03-28T05:48:55.455Z,9.82
2019-03-28T05:51:26.942Z,9.89
2019-03-28T05:53:58.595Z,9.96
2019-03-28T05:56:30.133Z,10.08
2019-03-28T05:59:10.883Z,10.13
2019-03-28T06:01:34.826Z,9.94
2019-03-28T06:04:06.320Z,9.98
2019-03-28T06:06:38.079Z,10.01
2019-03-28T06:09:09.599Z,10.01
2019-03-28T06:11:41.104Z,10.09
2019-03-28T06:14:12.620Z,10.11
2019-03-28T06:16:44.124Z,10.11
2019-03-28T06:19:15.866Z,10.10
2019-03-28T06:21:47.545Z,10.13
2019-03-28T06:24:19.217Z,10.15
2019-03-28T06:26:50.717Z,10.15
2019-03-28T06:29:24.481Z,10.22
2019-03-28T06:31:56.533Z,10.36
2019-03-28T06:34:30.006Z,10.52
2019-03-28T06:37:01.655Z,10.40
2019-03-28T06:39:36.282Z,10.43
2019-03-28T06:42:06.503Z,10.23
2019-03-28T06:44:38.039Z,10.28
2019-03-28T06:47:09.559Z,10.35
2019-03-28T06:49:41.152Z,10.37
2019-03-28T06:52:12.743Z,10.34
2019-03-28T06:54:44.278Z,10.36
2019-03-28T06:57:18.675Z,10.37
2019-03-28T06:59:49.069Z,10.34
2019-03-28T07:02:22.030Z,10.35
2019-03-28T07:04:53.693Z,10.36
2019-03-28T07:07:25.189Z,10.42
2019-03-28T07:09:56.712Z,10.47
2019-03-28T07:12:28.279Z,10.60
2019-03-28T07:14:59.867Z,10.65
2019-03-28T07:17:31.443Z,10.60
2019-03-28T07:20:02.960Z,10.66
2019-03-28T07:22:34.475Z,10.72
2019-03-28T07:25:07.333Z,10.95
2019-03-28T07:27:38.854Z,11.24
2019-03-28T07:30:12.532Z,11.34
2019-03-28T07:32:44.105Z,11.39
2019-03-28T07:35:15.618Z,11.58
2019-03-28T07:37:47.129Z,11.58
2019-03-28T07:40:18.644Z,11.57
2019-03-28T07:42:50.172Z,11.69
2019-03-28T07:45:21.688Z,11.59
2019-03-28T07:47:53.201Z,11.35
2019-03-28T07:50:24.722Z,11.31
2019-03-28T07:52:56.233Z,11.43
2019-03-28T07:55:27.838Z,11.40
2019-03-28T07:57:59.365Z,11.62
2019-03-28T08:00:30.884Z,11.53
2019-03-28T08:03:02.480Z,11.68
2019-03-28T08:05:34.141Z,11.81
2019-03-28T08:08:05.717Z,12.02
2019-03-28T08:10:37.338Z,11.89
2019-03-28T08:13:08.951Z,11.94
2019-03-28T08:15:40.533Z,12.03
2019-03-28T08:18:12.086Z,12.04
2019-03-28T08:20:43.579Z,12.23
2019-03-28T08:23:15.186Z,12.17
2019-03-28T08:25:46.697Z,12.17
2019-03-28T08:28:18.216Z,11.95
2019-03-28T08:30:49.785Z,12.33
2019-03-28T08:33:21.298Z,12.64
2019-03-28T08:35:53.052Z,12.47
2019-03-28T08:38:24.615Z,12.21
2019-03-28T08:40:56.269Z,12.48
2019-03-28T08:43:27.921Z,12.64
2019-03-28T08:45:59.460Z,12.58
2019-03-28T08:48:30.995Z,13.02
2019-03-28T08:51:02.506Z,13.07
2019-03-28T08:53:34.027Z,12.72
2019-03-28T08:56:05.516Z,12.33
2019-03-28T08:58:38.246Z,12.63
2019-03-28T09:01:10.036Z,12.63
2019-03-28T09:03:41.556Z,12.86
2019-03-28T09:06:13.072Z,12.82
2019-03-28T09:08:44.573Z,12.88
2019-03-28T09:11:16.094Z,12.90
2019-03-28T09:13:47.664Z,12.98
2019-03-28T09:16:19.177Z,12.87
2019-03-28T09:18:50.700Z,12.74
2019-03-28T09:21:22.212Z,12.62
2019-03-28T09:23:53.873Z,12.70
2019-03-28T09:26:25.457Z,13.14
2019-03-28T09:28:56.983Z,13.55
2019-03-28T09:31:28.514Z,13.95
2019-03-28T09:34:00.035Z,13.72
2019-03-28T09:36:31.557Z,13.51
2019-03-28T09:39:04.819Z,13.25
2019-03-28T09:41:36.417Z,13.00
2019-03-28T09:44:07.907Z,13.06
2019-03-28T09:46:39.422Z,13.10
2019-03-28T09:49:10.933Z,13.37
2019-03-28T09:51:42.449Z,13.28
2019-03-28T09:54:13.973Z,13.49
2019-03-28T09:56:45.631Z,13.91
2019-03-28T09:59:17.225Z,14.27
2019-03-28T10:01:48.767Z,14.06
2019-03-28T10:04:20.353Z,13.86
2019-03-28T10:06:51.872Z,13.52
2019-03-28T10:09:23.442Z,13.42
2019-03-28T10:11:54.966Z,13.49
2019-03-28T10:14:26.500Z,13.67
2019-03-28T10:16:58.013Z,13.84
2019-03-28T10:19:29.503Z,13.70
2019-03-28T10:22:00.997Z,13.52
2019-03-28T10:24:32.508Z,13.40
2019-03-28T10:27:04.056Z,13.65
2019-03-28T10:29:35.604Z,13.55
2019-03-28T10:32:07.117Z,13.81
2019-03-28T10:34:38.646Z,13.91
2019-03-28T10:37:10.116Z,13.87
2019-03-28T10:39:41.694Z,14.07
2019-03-28T10:42:13.182Z,14.18
2019-03-28T10:44:44.771Z,14.22
2019-03-28T10:47:16.352Z,13.92
2019-03-28T10:49:47.962Z,14.00
2019-03-28T10:52:19.499Z,14.17
2019-03-28T10:54:51.005Z,14.41
2019-03-28T10:57:29.771Z,14.31
2019-03-28T10:59:55.799Z,14.36
2019-03-28T11:02:28.929Z,14.68
2019-03-28T11:05:00.670Z,14.59
2019-03-28T11:07:32.183Z,14.32
2019-03-28T11:10:05.100Z,14.03
2019-03-28T11:12:36.665Z,14.10
2019-03-28T11:15:08.365Z,14.29
2019-03-28T11:17:39.854Z,14.20
2019-03-28T11:20:11.837Z,14.45
2019-03-28T11:22:43.415Z,14.56
2019-03-28T11:25:14.927Z,14.48
2019-03-28T11:27:46.447Z,14.38
2019-03-28T11:30:18.558Z,14.52
2019-03-28T11:32:50.240Z,14.70
2019-03-28T11:35:21.769Z,15.03
2019-03-28T11:37:53.360Z,15.22
2019-03-28T11:40:24.870Z,15.09
2019-03-28T11:42:56.446Z,14.85
2019-03-28T11:45:28.053Z,14.57
2019-03-28T11:47:59.568Z,14.87
2019-03-28T11:50:31.079Z,15.13
2019-03-28T11:53:02.565Z,15.42
2019-03-28T11:55:34.082Z,15.65
2019-03-28T11:58:05.620Z,15.42
2019-03-28T12:00:37.341Z,15.40
2019-03-28T12:03:08.866Z,15.54
2019-03-28T12:05:40.384Z,15.63
2019-03-28T12:08:11.910Z,15.54
2019-03-28T12:10:43.425Z,15.45
2019-03-28T12:13:14.951Z,14.96
2019-03-28T12:15:46.474Z,14.66
2019-03-28T12:18:18.050Z,14.33
2019-03-28T12:20:49.650Z,14.18
2019-03-28T12:23:21.166Z,14.14
2019-03-28T12:25:52.785Z,14.01
2019-03-28T12:28:24.304Z,13.82
2019-03-28T12:30:55.809Z,13.78
2019-03-28T12:33:27.331Z,13.79
2019-03-28T12:35:58.910Z,13.84
2019-03-28T12:38:30.399Z,13.84
2019-03-28T12:41:01.968Z,13.91
2019-03-28T12:43:33.552Z,14.05
2019-03-28T12:46:05.124Z,13.97
2019-03-28T12:48:36.713Z,14.10
2019-03-28T12:51:08.229Z,14.19
2019-03-28T12:53:39.806Z,14.09
2019-03-28T12:56:12.351Z,14.24
2019-03-28T12:58:44.009Z,14.01
2019-03-28T13:01:16.476Z,14.23
2019-03-28T13:03:47.986Z,14.17
2019-03-28T13:06:19.578Z,14.39
2019-03-28T13:08:51.103Z,14.35
2019-03-28T13:11:22.608Z,14.55
2019-03-28T13:13:54.117Z,14.65
2019-03-28T13:16:25.619Z,14.54
2019-03-28T13:18:57.172Z,14.47
2019-03-28T13:21:28.741Z,14.43
2019-03-28T13:24:00.231Z,14.47
2019-03-28T13:26:31.747Z,14.57
2019-03-28T13:29:03.353Z,14.46
2019-03-28T13:31:34.960Z,14.65
2019-03-28T13:34:06.529Z,14.69
2019-03-28T13:36:39.213Z,14.84
2019-03-28T13:39:10.734Z,14.91
2019-03-28T13:41:44.349Z,14.68
2019-03-28T13:44:15.520Z,14.68
2019-03-28T13:46:47.054Z,14.78
2019-03-28T13:49:18.569Z,14.61
2019-03-28T13:51:50.160Z,14.73
2019-03-28T13:54:23.336Z,14.75
2019-03-28T13:56:55.079Z,15.07
2019-03-28T13:59:26.597Z,15.16
2019-03-28T14:01:58.111Z,15.36
2019-03-28T14:04:30.695Z,15.49
2019-03-28T14:07:02.203Z,15.58
2019-03-28T14:09:33.706Z,15.60
2019-03-28T14:12:05.233Z,15.41
2019-03-28T14:14:39.805Z,14.91
2019-03-28T14:17:09.925Z,14.54
2019-03-28T14:19:41.459Z,14.42
2019-03-28T14:22:12.970Z,14.32
2019-03-28T14:24:44.479Z,14.27
2019-03-28T14:27:16.003Z,14.36
2019-03-28T14:29:47.526Z,14.25
2019-03-28T14:32:19.100Z,14.41
2019-03-28T14:34:50.609Z,14.45
2019-03-28T14:37:22.124Z,14.40
2019-03-28T14:39:53.632Z,14.18
2019-03-28T14:42:25.153Z,14.27
2019-03-28T14:44:56.666Z,14.34
2019-03-28T14:47:28.315Z,14.32
2019-03-28T14:50:00.012Z,14.22
2019-03-28T14:52:31.568Z,14.09
2019-03-28T14:55:03.102Z,13.94
2019-03-28T14:57:34.687Z,13.94
2019-03-28T15:00:13.532Z,13.85
2019-03-28T15:02:45.156Z,13.75
2019-03-28T15:05:16.679Z,13.53
2019-03-28T15:07:48.192Z,13.53
2019-03-28T15:10:19.716Z,13.43
2019-03-28T15:12:51.205Z,13.40
2019-03-28T15:15:22.718Z,13.45
2019-03-28T15:17:54.323Z,13.39
2019-03-28T15:20:27.503Z,13.41
2019-03-28T15:22:59.175Z,13.38
2019-03-28T15:25:32.514Z,13.38
2019-03-28T15:28:05.649Z,13.24
2019-03-28T15:30:44.740Z,13.29
2019-03-28T15:33:22.040Z,13.37
2019-03-28T15:35:58.061Z,13.29
2019-03-28T15:38:34.612Z,13.37
2019-03-28T15:41:06.197Z,13.46
2019-03-28T15:43:37.758Z,13.39
2019-03-28T15:46:09.331Z,13.44
2019-03-28T15:48:40.828Z,13.48
2019-03-28T15:51:12.355Z,13.44
2019-03-28T15:53:43.870Z,13.39
2019-03-28T15:56:15.367Z,13.41
2019-03-28T15:58:46.948Z,13.52
2019-03-28T16:01:18.480Z,13.54
2019-03-28T16:03:53.357Z,13.61
2019-03-28T16:06:23.279Z,13.75
2019-03-28T16:08:54.921Z,13.78
2019-03-28T16:11:26.654Z,13.67
2019-03-28T16:13:58.254Z,13.62
2019-03-28T16:16:29.774Z,13.68
2019-03-28T16:19:01.847Z,13.76
2019-03-28T16:21:33.617Z,13.79
2019-03-28T16:24:05.221Z,13.79
2019-03-28T16:26:36.803Z,13.72
2019-03-28T16:29:09.972Z,13.77
2019-03-28T16:31:43.140Z,13.67
2019-03-28T16:34:14.680Z,13.63
2019-03-28T16:36:46.223Z,13.43
2019-03-28T16:39:17.749Z,13.31
2019-03-28T16:41:49.812Z,13.36
2019-03-28T16:44:21.433Z,13.36
2019-03-28T16:46:52.999Z,13.37
2019-03-28T16:49:24.533Z,13.24
2019-03-28T16:51:56.049Z,13.21
2019-03-28T16:54:27.959Z,13.25
2019-03-28T16:56:59.672Z,13.37
2019-03-28T16:59:31.252Z,13.38
2019-03-28T17:02:02.772Z,13.40
2019-03-28T17:04:34.355Z,13.33
2019-03-28T17:07:07.033Z,13.36
2019-03-28T17:09:39.257Z,13.42
2019-03-28T17:12:10.967Z,13.42
2019-03-28T17:14:43.444Z,13.45
2019-03-28T17:17:15.029Z,13.49
2019-03-28T17:19:46.526Z,13.44
2019-03-28T17:22:18.048Z,13.40
2019-03-28T17:24:49.548Z,13.40
2019-03-28T17:27:21.049Z,13.40
2019-03-28T17:29:52.840Z,13.42
2019-03-28T17:32:25.512Z,13.43
2019-03-28T17:34:57.025Z,13.34
2019-03-28T17:37:28.672Z,13.33
2019-03-28T17:40:00.395Z,13.38
2019-03-28T17:42:32.108Z,13.40
2019-03-28T17:45:07.153Z,13.42
2019-03-28T17:47:38.742Z,13.42
2019-03-28T17:50:10.363Z,13.38
2019-03-28T17:52:42.055Z,13.34
2019-03-28T17:55:13.568Z,13.33
2019-03-28T17:57:45.536Z,13.30
2019-03-28T18:00:17.567Z,13.30
2019-03-28T18:02:49.236Z,13.26
2019-03-28T18:05:20.748Z,13.26
2019-03-28T18:07:52.368Z,13.25
2019-03-28T18:10:24.973Z,13.23
2019-03-28T18:12:57.567Z,13.18
2019-03-28T18:15:29.128Z,13.15
2019-03-28T18:18:00.703Z,13.20
2019-03-28T18:20:33.533Z,13.19
2019-03-28T18:23:05.124Z,13.21
2019-03-28T18:25:36.646Z,13.18
2019-03-28T18:28:08.232Z,13.18
2019-03-28T18:30:39.937Z,13.15
2019-03-28T18:33:11.517Z,13.09
2019-03-28T18:35:43.193Z,13.11
2019-03-28T18:38:14.700Z,13.07
2019-03-28T18:40:46.826Z,13.03
2019-03-28T18:43:18.648Z,13.08
2019-03-28T18:45:50.267Z,13.06
2019-03-28T18:48:29.134Z,13.06
2019-03-28T18:50:54.957Z,13.06
2019-03-28T18:53:26.725Z,13.02
2019-03-28T18:55:58.306Z,12.94
2019-03-28T18:58:29.864Z,12.85
2019-03-28T19:01:01.442Z,12.84
2019-03-28T19:03:33.036Z,12.72
2019-03-28T19:06:04.547Z,12.73
2019-03-28T19:08:36.063Z,12.72
2019-03-28T19:11:07.650Z,12.63
2019-03-28T19:13:39.782Z,12.60
2019-03-28T19:16:11.559Z,12.65
2019-03-28T19:18:43.148Z,12.62
2019-03-28T19:21:14.716Z,12.64
2019-03-28T19:23:46.321Z,12.59
2019-03-28T19:26:17.905Z,12.56
2019-03-28T19:28:49.506Z,12.53
2019-03-28T19:31:21.026Z,12.52
2019-03-28T19:33:52.543Z,12.51
2019-03-28T19:36:24.049Z,12.47
2019-03-28T19:38:55.704Z,12.38
2019-03-28T19:41:27.238Z,12.34
2019-03-28T19:43:58.929Z,12.22
2019-03-28T19:46:35.869Z,12.12
2019-03-28T19:49:03.802Z,12.03
2019-03-28T19:51:35.367Z,11.97
2019-03-28T19:54:21.709Z,11.82
2019-03-28T19:57:06.320Z,11.78
2019-03-28T19:59:41.878Z,11.70
2019-03-28T20:02:14.412Z,11.54
2019-03-28T20:04:46.783Z,11.51
2019-03-28T20:07:21.937Z,11.45
2019-03-28T20:09:51.930Z,11.38
2019-03-28T20:12:23.529Z,11.37
2019-03-28T20:14:55.230Z,11.30
2019-03-28T20:17:34.362Z,11.18
2019-03-28T20:20:08.659Z,11.14
2019-03-28T20:22:46.157Z,11.07
2019-03-28T20:25:22.575Z,11.08
2019-03-28T20:27:54.043Z,11.03
2019-03-28T20:30:25.807Z,11.01
2019-03-28T20:32:57.478Z,11.03
2019-03-28T20:35:29.088Z,11.02
2019-03-28T20:38:00.679Z,10.97
2019-03-28T20:40:32.300Z,10.94
2019-03-28T20:43:07.765Z,10.94
2019-03-28T20:45:38.289Z,10.95
2019-03-28T20:48:09.845Z,10.91
2019-03-28T20:50:41.464Z,10.89
2019-03-28T20:53:13.184Z,10.90
2019-03-28T20:55:44.808Z,10.91
2019-03-28T20:58:16.541Z,10.94
2019-03-28T21:00:48.813Z,10.91
2019-03-28T21:03:23.871Z,10.85
2019-03-28T21:05:55.469Z,10.79
2019-03-28T21:08:27.287Z,10.67
2019-03-28T21:10:59.742Z,10.62
2019-03-28T21:13:31.509Z,10.70
2019-03-28T21:16:03.106Z,10.65
2019-03-28T21:18:34.705Z,10.66
2019-03-28T21:21:06.234Z,10.62
2019-03-28T21:23:38.257Z,10.70
2019-03-28T21:26:10.483Z,10.65
2019-03-28T21:28:47.567Z,10.64
2019-03-28T21:31:16.210Z,10.59
2019-03-28T21:33:47.791Z,10.68
2019-03-28T21:36:29.738Z,10.75
2019-03-28T21:38:52.575Z,10.82
2019-03-28T21:41:24.212Z,10.82
2019-03-28T21:43:56.266Z,10.85
2019-03-28T21:46:28.425Z,10.90
2019-03-28T21:49:00.038Z,10.83
2019-03-28T21:51:31.743Z,10.83
2019-03-28T21:54:04.979Z,10.85
2019-03-28T21:56:36.895Z,10.90
2019-03-28T21:59:08.554Z,10.96
2019-03-28T22:01:40.094Z,11.01
2019-03-28T22:04:11.595Z,10.95
2019-03-28T22:06:43.507Z,10.86
2019-03-28T22:09:15.199Z,10.98
2019-03-28T22:11:46.772Z,11.12
2019-03-28T22:14:18.355Z,11.11
2019-03-28T22:16:50.161Z,11.17
2019-03-28T22:19:21.850Z,11.24
2019-03-28T22:21:54.368Z,11.21
2019-03-28T22:24:25.969Z,11.19
2019-03-28T22:26:57.483Z,11.16
2019-03-28T22:29:29.222Z,11.12
2019-03-28T22:32:00.788Z,11.01
2019-03-28T22:34:33.212Z,11.00
2019-03-28T22:37:05.583Z,10.96
2019-03-28T22:39:37.376Z,10.86
2019-03-28T22:42:16.156Z,10.91
2019-03-28T22:44:47.753Z,10.95
2019-03-28T22:47:19.277Z,10.93
2019-03-28T22:49:52.052Z,11.00
2019-03-28T22:52:23.585Z,11.00
2019-03-28T22:54:55.084Z,10.99
2019-03-28T22:57:26.676Z,10.98
2019-03-28T22:59:58.206Z,11.01
2019-03-28T23:02:29.781Z,11.05
2019-03-28T23:05:01.325Z,11.09
2019-03-28T23:07:32.915Z,11.11
2019-03-28T23:10:07.528Z,11.19
2019-03-28T23:12:39.000Z,11.17
2019-03-28T23:15:10.991Z,11.10
2019-03-28T23:17:42.817Z,11.15
2019-03-28T23:20:14.386Z,11.14
2019-03-28T23:22:45.913Z,11.13
2019-03-28T23:25:17.519Z,11.18
2019-03-28T23:27:49.048Z,11.23
2019-03-28T23:30:20.633Z,11.22
2019-03-28T23:32:52.208Z,11.27
2019-03-28T23:35:23.788Z,11.26
2019-03-28T23:37:55.423Z,11.27
2019-03-28T23:40:27.024Z,11.25
2019-03-28T23:42:58.619Z,11.19
2019-03-28T23:45:30.145Z,11.20
2019-03-28T23:48:01.669Z,11.22
2019-03-28T23:50:33.324Z,11.22
2019-03-28T23:53:04.861Z,11.24
2019-03-28T23:55:36.452Z,11.22
2019-03-28T23:58:07.940Z,11.20
